Time;durP1;ratioP1;P1;durP2;ratioP2;P2;SDS_P1;SDS_P2;PMS_P1;PMS_P2;Temp;Humidity;BMP_temperature;BMP_pressure;BME280_temperature;BME280_humidity;BME280_pressure;Samples;Min_cycle;Max_cycle;Signal;HPM_P1;HPM_P2
2024/01/27 00:02:20;;;;;;;13.88;5.15;;;;;;;3.66;84.79;103228.69;3608733;39;20066;-68
2024/01/27 00:04:46;;;;;;;22.13;5.20;;;;;;;3.77;84.76;103248.22;3609062;39;20066;-68
2024/01/27 00:07:11;;;;;;;19.42;4.93;;;;;;;3.67;84.99;103238.44;3608137;39;20051;-68
2024/01/27 00:09:37;;;;;;;18.65;5.47;;;;;;;3.75;85.58;103249.13;3610255;39;20074;-68
2024/01/27 00:12:03;;;;;;;15.90;5.03;;;;;;;3.72;85.71;103237.56;3607146;39;20062;-68
2024/01/27 00:14:28;;;;;;;13.90;4.88;;;;;;;3.70;85.19;103236.66;3608401;39;20059;-68
2024/01/27 00:16:54;;;;;;;13.02;5.05;;;;;;;3.63;85.76;103228.66;3607736;39;20077;-68
2024/01/27 00:19:19;;;;;;;14.82;5.45;;;;;;;3.72;85.06;103231.38;3608654;39;20055;-68
2024/01/27 00:21:45;;;;;;;23.02;5.45;;;;;;;3.75;85.67;103223.41;3611118;39;20047;-68
2024/01/27 00:24:10;;;;;;;15.00;5.57;;;;;;;3.73;86.07;103220.72;3608038;39;20315;-68
2024/01/27 00:26:37;;;;;;;20.00;5.43;;;;;;;3.67;85.15;103218.03;3606064;39;20047;-68
2024/01/27 00:29:02;;;;;;;19.27;4.60;;;;;;;3.69;85.02;103223.38;3608866;39;20467;-68
2024/01/27 00:31:28;;;;;;;19.60;5.88;;;;;;;3.73;85.28;103233.16;3607852;39;20047;-68
2024/01/27 00:33:53;;;;;;;15.32;5.45;;;;;;;3.71;85.14;103237.56;3608162;39;20400;-68
2024/01/27 00:36:19;;;;;;;13.77;5.65;;;;;;;3.11;85.25;103143.25;3608538;39;20093;-69
2024/01/27 00:38:45;;;;;;;16.75;5.40;;;;;;;3.59;85.16;103248.16;3608559;39;20051;-68
2024/01/27 00:41:17;;;;;;;16.17;4.97;;;;;;;3.57;85.53;103249.91;3606654;39;20086;-68
2024/01/27 00:43:42;;;;;;;16.38;5.63;;;;;;;3.56;85.71;103245.47;3606630;39;20071;-68
2024/01/27 00:46:08;;;;;;;17.83;5.82;;;;;;;3.57;86.11;103250.78;3609397;39;20047;-68
2024/01/27 00:48:33;;;;;;;16.77;5.45;;;;;;;3.58;85.77;103256.97;3610730;39;20323;-68
2024/01/27 00:50:59;;;;;;;14.75;4.97;;;;;;;3.54;85.41;103253.41;3605713;39;20058;-68
2024/01/27 00:53:25;;;;;;;18.92;5.97;;;;;;;3.51;85.44;103255.19;3607537;39;20062;-68
2024/01/27 00:55:50;;;;;;;17.38;6.00;;;;;;;3.49;86.06;103250.75;3607967;39;20128;-68
2024/01/27 00:58:16;;;;;;;16.50;5.95;;;;;;;3.47;86.08;103252.50;3607266;39;20050;-68
2024/01/27 01:00:42;;;;;;;16.25;5.28;;;;;;;3.48;85.68;103256.03;3607342;39;20372;-68
2024/01/27 01:03:07;;;;;;;19.33;5.68;;;;;;;3.43;85.51;103258.69;3606769;39;20082;-69
2024/01/27 01:05:33;;;;;;;16.90;5.25;;;;;;;3.40;85.83;103263.09;3610308;39;20061;-68
2024/01/27 01:07:59;;;;;;;15.20;5.30;;;;;;;3.37;86.12;103257.75;3608652;39;20055;-69
2024/01/27 01:10:24;;;;;;;17.63;5.68;;;;;;;3.34;86.57;103253.28;3611743;39;20050;-68
2024/01/27 01:12:50;;;;;;;20.75;6.05;;;;;;;3.24;86.40;103251.44;3607219;39;20054;-68
2024/01/27 01:15:15;;;;;;;14.10;5.63;;;;;;;3.31;87.12;103271.00;3606743;39;20065;-68
2024/01/27 01:17:41;;;;;;;17.38;5.68;;;;;;;3.29;86.38;103255.00;3610187;39;20054;-68
2024/01/27 01:20:08;;;;;;;11.27;5.72;;;;;;;3.28;86.71;103255.91;3608832;39;20067;-68
2024/01/27 01:22:33;;;;;;;14.40;5.32;;;;;;;3.29;86.40;103259.44;3609755;39;20059;-68
2024/01/27 01:24:59;;;;;;;12.77;5.15;;;;;;;3.23;86.91;103258.50;3608870;39;20529;-68
2024/01/27 01:27:24;;;;;;;17.25;5.80;;;;;;;3.24;87.23;103262.09;3607243;39;20065;-69
2024/01/27 01:29:50;;;;;;;15.00;5.28;;;;;;;3.21;87.28;103251.44;3606768;39;20265;-68
2024/01/27 01:32:16;;;;;;;15.93;5.80;;;;;;;3.06;87.11;103230.94;3610265;39;20052;-68
2024/01/27 01:34:41;;;;;;;20.42;6.00;;;;;;;3.24;87.30;103268.28;3608943;39;20058;-68
2024/01/27 01:37:07;;;;;;;14.82;6.03;;;;;;;3.19;86.60;103254.06;3606832;39;20051;-68
2024/01/27 01:39:32;;;;;;;14.40;5.65;;;;;;;3.11;86.56;103244.22;3608951;39;20104;-68
2024/01/27 01:41:58;;;;;;;15.18;6.13;;;;;;;3.15;86.44;103257.56;3613410;39;20047;-68
2024/01/27 01:44:31;;;;;;;14.02;5.70;;;;;;;3.12;87.34;103256.66;3611027;39;20063;-68
2024/01/27 01:46:58;;;;;;;14.73;5.93;;;;;;;3.07;86.59;103259.25;3608911;39;20051;-68
2024/01/27 01:49:24;;;;;;;17.35;5.60;;;;;;;2.96;86.45;103237.94;3610885;39;20168;-68
2024/01/27 01:51:50;;;;;;;12.68;5.22;;;;;;;3.03;87.12;103261.00;3612259;39;20055;-67
2024/01/27 01:54:16;;;;;;;13.07;5.80;;;;;;;3.05;87.93;103263.69;3608719;39;20087;-68
2024/01/27 01:56:42;;;;;;;16.98;5.85;;;;;;;3.07;88.42;103261.03;3609017;39;20063;-68
2024/01/27 01:59:08;;;;;;;21.83;6.85;;;;;;;3.08;87.49;103262.84;3609967;39;20060;-68
2024/01/27 02:01:34;;;;;;;16.17;6.15;;;;;;;3.06;86.99;103261.94;3611723;39;20043;-68
2024/01/27 02:03:59;;;;;;;20.85;6.40;;;;;;;3.08;87.11;103268.16;3612517;39;20054;-68
2024/01/27 02:06:25;;;;;;;21.60;6.15;;;;;;;3.04;87.73;103261.91;3613039;39;20444;-67
2024/01/27 02:08:51;;;;;;;19.23;6.32;;;;;;;3.05;88.08;103260.16;3612763;39;20047;-67
2024/01/27 02:11:17;;;;;;;22.00;7.18;;;;;;;3.06;88.03;103259.28;3609182;39;20160;-68
2024/01/27 02:13:43;;;;;;;21.88;6.18;;;;;;;2.85;87.96;103226.31;3610462;39;20047;-68
2024/01/27 02:16:09;;;;;;;17.25;6.15;;;;;;;3.00;86.93;103263.63;3610937;39;20044;-67
2024/01/27 02:18:35;;;;;;;19.27;5.82;;;;;;;2.81;87.50;103234.25;3610084;39;20047;-68
2024/01/27 02:21:00;;;;;;;17.92;7.40;;;;;;;2.99;88.25;103261.88;3612343;39;20051;-68
2024/01/27 02:23:26;;;;;;;17.02;6.15;;;;;;;2.99;87.85;103267.19;3609618;39;20047;-68
2024/01/27 02:25:52;;;;;;;15.80;6.10;;;;;;;2.99;87.74;103267.19;3615532;39;20299;-67
2024/01/27 02:28:17;;;;;;;18.17;7.18;;;;;;;3.01;87.51;103270.75;3610453;39;20077;-67
2024/01/27 02:30:44;;;;;;;16.95;5.95;;;;;;;3.01;87.68;103278.72;3610407;39;20367;-68
2024/01/27 02:33:09;;;;;;;15.50;6.07;;;;;;;3.01;86.86;103281.38;3608654;39;20051;-67
2024/01/27 02:35:35;;;;;;;13.30;5.45;;;;;;;3.02;88.08;103277.84;3610916;39;20154;-68
2024/01/27 02:38:01;;;;;;;16.48;5.88;;;;;;;3.01;86.70;103269.84;3609653;39;20354;-67
2024/01/27 02:40:26;;;;;;;14.73;6.38;;;;;;;3.00;87.66;103273.38;3611836;39;20070;-68
2024/01/27 02:42:52;;;;;;;22.50;6.80;;;;;;;2.99;87.33;103283.13;3607552;39;20285;-68
2024/01/27 02:45:18;;;;;;;16.02;6.20;;;;;;;2.97;87.38;103274.25;3610276;39;20127;-67
2024/01/27 02:47:44;;;;;;;14.23;6.28;;;;;;;2.95;86.74;103270.69;3606822;39;20051;-68
2024/01/27 02:50:11;;;;;;;22.15;6.55;;;;;;;2.93;86.88;103277.75;3610151;39;20059;-68
2024/01/27 02:52:36;;;;;;;19.48;6.57;;;;;;;2.71;87.57;103239.47;3610674;39;20315;-68
2024/01/27 02:55:02;;;;;;;18.77;5.95;;;;;;;2.92;86.60;103269.78;3610719;39;20062;-68
2024/01/27 02:57:28;;;;;;;16.58;5.95;;;;;;;2.89;86.64;103265.31;3610660;39;20069;-67
2024/01/27 02:59:54;;;;;;;20.42;6.13;;;;;;;2.86;86.94;103275.91;3609497;39;20061;-68
2024/01/27 03:02:19;;;;;;;23.48;6.40;;;;;;;2.83;87.27;103275.00;3609770;39;20087;-67
2024/01/27 03:04:45;;;;;;;20.55;6.30;;;;;;;2.78;86.20;103272.28;3608767;39;20051;-68
2024/01/27 03:07:10;;;;;;;13.68;5.28;;;;;;;2.52;86.29;103230.44;3608951;39;20051;-68
2024/01/27 03:09:36;;;;;;;20.75;6.25;;;;;;;2.70;86.28;103271.34;3610539;39;20082;-68
2024/01/27 03:12:02;;;;;;;18.40;5.90;;;;;;;2.67;87.41;103266.00;3610835;39;20053;-68
2024/01/27 03:14:28;;;;;;;19.60;6.25;;;;;;;2.54;87.03;103260.56;3608923;39;20074;-68
2024/01/27 03:16:54;;;;;;;18.23;6.35;;;;;;;2.39;87.52;103240.91;3609060;39;20414;-68
2024/01/27 03:19:20;;;;;;;12.75;5.45;;;;;;;2.58;87.40;103273.84;3609280;39;20051;-67
2024/01/27 03:21:46;;;;;;;15.43;5.90;;;;;;;2.56;87.59;103282.69;3610141;39;20054;-68
2024/01/27 03:24:12;;;;;;;16.02;5.80;;;;;;;2.50;87.32;103279.06;3608140;39;20055;-67
2024/01/27 03:26:37;;;;;;;13.98;5.88;;;;;;;2.50;87.36;103271.97;3611991;39;20058;-69
2024/01/27 03:29:03;;;;;;;14.02;6.07;;;;;;;2.46;86.88;103286.09;3610211;39;20038;-68
2024/01/27 03:31:34;;;;;;;15.75;6.18;;;;;;;2.20;87.97;103250.44;3611759;39;20099;-68
2024/01/27 03:34:00;;;;;;;16.98;6.00;;;;;;;2.27;88.21;103255.81;3609938;39;20128;-67
2024/01/27 03:36:26;;;;;;;14.40;5.63;;;;;;;2.38;87.75;103287.81;3609128;39;20050;-68
2024/01/27 03:38:52;;;;;;;19.80;5.60;;;;;;;2.38;88.53;103292.19;3610974;39;20057;-67
2024/01/27 03:41:18;;;;;;;16.50;6.53;;;;;;;2.36;87.73;103283.34;3610033;39;20039;-67
2024/01/27 03:43:43;;;;;;;18.13;6.00;;;;;;;2.36;88.41;103284.22;3609721;39;20062;-68
2024/01/27 03:46:09;;;;;;;17.25;5.40;;;;;;;2.31;89.04;103291.22;3609185;39;20051;-67
2024/01/27 03:48:37;;;;;;;15.27;5.65;;;;;;;2.31;88.57;103286.81;3609630;39;20152;-67
2024/01/27 03:51:03;;;;;;;14.07;6.03;;;;;;;2.30;88.00;103278.84;3610162;39;20345;-67
2024/01/27 03:53:29;;;;;;;15.77;6.00;;;;;;;2.29;88.81;103271.78;3609809;39;20129;-67
2024/01/27 03:55:58;;;;;;;19.27;6.28;;;;;;;2.26;87.89;103283.22;3609792;39;20063;-68
2024/01/27 03:58:24;;;;;;;14.98;6.18;;;;;;;2.29;88.74;103279.72;3609783;39;20091;-68
2024/01/27 04:00:51;;;;;;;15.27;5.35;;;;;;;2.28;88.60;103281.50;3610468;39;20124;-67
2024/01/27 04:03:17;;;;;;;15.23;5.15;;;;;;;2.28;88.80;103288.53;3609163;39;20108;-67
2024/01/27 04:05:42;;;;;;;16.92;6.00;;;;;;;2.28;88.34;103280.56;3610647;39;20145;-68
2024/01/27 04:08:08;;;;;;;16.73;6.30;;;;;;;2.25;89.05;103283.19;3609633;39;20383;-67
2024/01/27 04:10:34;;;;;;;16.05;5.82;;;;;;;2.30;88.35;103284.16;3611678;39;20053;-67
2024/01/27 04:13:00;;;;;;;12.38;5.72;;;;;;;2.31;89.24;103283.28;3610116;39;20055;-68
2024/01/27 04:15:25;;;;;;;12.98;5.88;;;;;;;2.32;88.63;103287.72;3610749;39;20677;-68
2024/01/27 04:17:51;;;;;;;13.27;5.85;;;;;;;2.32;88.51;103290.38;3611344;39;20051;-68
2024/01/27 04:20:17;;;;;;;15.38;5.85;;;;;;;2.32;87.95;103293.03;3610407;39;20379;-68
2024/01/27 04:22:42;;;;;;;16.58;5.85;;;;;;;2.30;89.10;103295.66;3607565;39;20058;-68
2024/01/27 04:25:08;;;;;;;13.70;6.30;;;;;;;2.30;88.63;103293.00;3607517;39;20051;-67
2024/01/27 04:27:42;;;;;;;16.10;5.60;;;;;;;2.29;87.91;103291.22;3611282;39;20050;-68
2024/01/27 04:30:10;;;;;;;13.43;5.85;;;;;;;2.25;87.97;103293.81;3606107;39;20444;-68
2024/01/27 04:32:36;;;;;;;19.75;6.40;;;;;;;2.21;88.04;103290.22;3609373;39;20434;-68
2024/01/27 04:35:03;;;;;;;17.58;6.18;;;;;;;2.19;87.88;103288.41;3607768;39;20087;-68
2024/01/27 04:37:28;;;;;;;15.05;6.07;;;;;;;2.15;87.82;103294.56;3612874;39;20038;-68
2024/01/27 04:39:54;;;;;;;15.02;5.85;;;;;;;2.13;89.16;103297.22;3608195;39;20334;-68
2024/01/27 04:42:20;;;;;;;17.60;6.18;;;;;;;2.13;88.83;103293.69;3609949;39;20328;-67
2024/01/27 04:44:46;;;;;;;19.00;6.32;;;;;;;2.12;89.20;103299.84;3607567;39;20101;-68
2024/01/27 04:47:11;;;;;;;13.93;6.28;;;;;;;2.10;88.65;103291.88;3608704;39;20063;-67
2024/01/27 04:49:37;;;;;;;15.32;5.95;;;;;;;2.09;88.68;103301.59;3612619;39;20357;-67
2024/01/27 04:52:03;;;;;;;15.93;6.93;;;;;;;2.09;88.89;103296.28;3607522;39;20051;-67
2024/01/27 04:54:29;;;;;;;17.60;6.65;;;;;;;2.09;89.38;103301.59;3609439;39;20197;-67
2024/01/27 04:56:54;;;;;;;18.55;6.47;;;;;;;2.07;89.11;103292.72;3609246;39;20089;-67
2024/01/27 04:59:20;;;;;;;15.65;7.15;;;;;;;2.10;89.97;103289.22;3607343;39;20061;-67
2024/01/27 05:01:46;;;;;;;15.45;6.80;;;;;;;1.89;89.42;103259.75;3608666;39;20446;-67
2024/01/27 05:04:13;;;;;;;17.02;6.55;;;;;;;2.09;89.96;103288.34;3608451;39;20087;-67
2024/01/27 05:06:43;;;;;;;12.50;6.53;;;;;;;2.08;89.75;103289.19;3611598;39;20368;-67
2024/01/27 05:09:08;;;;;;;17.20;6.57;;;;;;;2.08;89.42;103294.50;3605827;39;20066;-68
2024/01/27 05:11:34;;;;;;;14.10;6.28;;;;;;;1.89;89.72;103254.44;3607091;39;20043;-68
2024/01/27 05:14:00;;;;;;;17.05;6.38;;;;;;;1.89;89.62;103265.94;3609189;39;20418;-68
2024/01/27 05:16:28;;;;;;;11.48;5.70;;;;;;;2.06;89.79;103290.94;3607862;39;20115;-67
2024/01/27 05:18:54;;;;;;;19.83;7.03;;;;;;;2.03;89.41;103295.28;3609671;39;20128;-67
2024/01/27 05:21:19;;;;;;;15.43;6.03;;;;;;;1.78;89.21;103259.63;3610944;39;20051;-67
2024/01/27 05:23:45;;;;;;;18.75;6.97;;;;;;;1.80;89.12;103252.56;3609009;39;20059;-67
2024/01/27 05:26:11;;;;;;;17.35;6.25;;;;;;;2.00;89.87;103301.47;3613119;39;20466;-67
2024/01/27 05:28:40;;;;;;;17.77;7.03;;;;;;;1.96;89.78;103288.13;3610953;39;20067;-67
2024/01/27 05:31:09;;;;;;;18.98;7.05;;;;;;;2.00;88.76;103298.81;3609987;39;20047;-67
2024/01/27 05:33:44;;;;;;;15.70;6.25;;;;;;;1.75;89.16;103257.81;3612357;39;20039;-68
2024/01/27 05:36:10;;;;;;;17.98;6.10;;;;;;;1.99;88.98;103294.38;3611511;39;20059;-67
2024/01/27 05:38:35;;;;;;;18.48;7.03;;;;;;;1.96;89.91;103282.81;3610569;39;20063;-67
2024/01/27 05:41:01;;;;;;;17.80;7.28;;;;;;;1.96;89.45;103289.00;3610758;39;20062;-67
2024/01/27 05:43:27;;;;;;;17.88;7.47;;;;;;;1.68;88.64;103239.13;3612753;39;20077;-67
2024/01/27 05:45:53;;;;;;;16.15;7.60;;;;;;;1.89;89.77;103270.34;3611736;39;20051;-67
2024/01/27 05:48:19;;;;;;;20.33;9.13;;;;;;;1.69;88.98;103240.94;3610253;39;20056;-67
2024/01/27 05:50:59;;;;;;;19.60;10.50;;;;;;;1.87;89.76;103267.66;3611565;39;20128;-67
2024/01/27 05:53:26;;;;;;;25.17;10.13;;;;;;;1.86;89.79;103265.91;3613191;39;20079;-67
2024/01/27 05:55:53;;;;;;;17.85;9.27;;;;;;;1.77;89.66;103260.47;3611779;39;20108;-67
2024/01/27 05:58:21;;;;;;;21.25;9.77;;;;;;;1.83;89.37;103274.69;3611692;39;20310;-67
2024/01/27 06:00:47;;;;;;;20.15;9.95;;;;;;;1.83;89.79;103277.34;3610191;39;20043;-67
2024/01/27 06:03:13;;;;;;;18.25;9.75;;;;;;;1.83;90.23;103281.75;3610872;39;20557;-66
2024/01/27 06:05:39;;;;;;;18.98;9.10;;;;;;;1.83;91.28;103284.41;3611386;39;20062;-67
2024/01/27 06:08:07;;;;;;;23.90;15.18;;;;;;;1.85;91.16;103278.28;3619470;39;20059;-67
2024/01/27 06:10:32;;;;;;;23.17;12.70;;;;;;;1.82;91.44;103264.97;3611787;39;20043;-69
2024/01/27 06:12:58;;;;;;;21.23;8.40;;;;;;;1.86;90.91;103271.19;3610951;39;20051;-68
2024/01/27 06:15:23;;;;;;;19.75;8.95;;;;;;;1.87;90.99;103272.97;3609921;39;20347;-67
2024/01/27 06:17:49;;;;;;;19.67;8.52;;;;;;;1.77;91.32;103247.22;3609949;39;20047;-68
2024/01/27 06:20:18;;;;;;;26.52;9.30;;;;;;;1.88;91.19;103272.13;3610478;39;20411;-67
2024/01/27 06:22:44;;;;;;;20.98;9.30;;;;;;;1.81;90.31;103263.19;3614163;39;20047;-67
2024/01/27 06:25:13;;;;;;;23.75;10.43;;;;;;;1.88;90.47;103264.16;3616372;39;20063;-67
2024/01/27 06:27:41;;;;;;;21.65;9.98;;;;;;;1.84;90.30;103272.97;3611567;39;20057;-67
2024/01/27 06:30:07;;;;;;;21.92;8.90;;;;;;;1.84;89.82;103279.16;3611959;39;20051;-67
2024/01/27 06:32:33;;;;;;;20.77;9.93;;;;;;;1.80;90.65;103273.78;3610088;39;20053;-67
2024/01/27 06:34:58;;;;;;;19.65;8.85;;;;;;;1.83;90.98;103276.47;3613801;39;20062;-68
2024/01/27 06:37:24;;;;;;;17.17;8.50;;;;;;;1.81;90.28;103272.91;3610282;39;20050;-67
2024/01/27 06:39:50;;;;;;;17.15;7.90;;;;;;;1.80;90.99;103273.78;3610997;39;20051;-67
2024/01/27 06:42:15;;;;;;;18.27;7.78;;;;;;;1.81;90.66;103284.41;3611575;39;20280;-67
2024/01/27 06:44:41;;;;;;;17.75;8.13;;;;;;;1.78;90.58;103280.84;3613551;39;20051;-67
2024/01/27 06:47:06;;;;;;;17.95;7.82;;;;;;;1.80;90.72;103287.91;3613022;39;20390;-67
2024/01/27 06:49:33;;;;;;;23.83;8.55;;;;;;;1.81;90.31;103288.84;3611131;39;20062;-67
2024/01/27 06:51:59;;;;;;;17.27;8.77;;;;;;;1.82;91.70;103291.50;3610288;39;20050;-67
2024/01/27 06:54:24;;;;;;;21.40;9.05;;;;;;;1.84;91.51;103296.84;3609242;39;20071;-67
2024/01/27 06:56:50;;;;;;;19.83;8.27;;;;;;;1.83;90.49;103302.97;3614048;39;20047;-67
2024/01/27 06:59:15;;;;;;;18.50;9.07;;;;;;;1.84;91.51;103304.78;3611748;39;20308;-67
2024/01/27 07:01:50;;;;;;;19.70;8.02;;;;;;;1.87;90.82;103320.72;3612640;39;20055;-67
2024/01/27 07:04:16;;;;;;;21.02;8.57;;;;;;;1.92;91.43;103324.34;3609378;39;20058;-67
2024/01/27 07:06:41;;;;;;;22.83;8.50;;;;;;;1.91;91.84;103313.72;3610168;39;20059;-67
2024/01/27 07:09:09;;;;;;;16.08;8.10;;;;;;;1.84;91.49;103305.66;3609004;39;20047;-67
2024/01/27 07:11:35;;;;;;;17.90;8.95;;;;;;;1.92;91.04;103319.03;3610365;39;20051;-67
2024/01/27 07:14:01;;;;;;;17.05;8.70;;;;;;;1.94;91.31;103327.91;3600879;39;20375;-67
2024/01/27 07:16:27;;;;;;;26.00;10.07;;;;;;;1.75;91.56;103291.41;3611345;39;20043;-67
2024/01/27 07:18:53;;;;;;;24.45;12.55;;;;;;;1.93;90.85;103320.81;3612376;39;20065;-67
2024/01/27 07:21:18;;;;;;;22.55;11.07;;;;;;;1.94;91.64;103321.72;3616799;39;20062;-67
2024/01/27 07:23:44;;;;;;;22.75;11.80;;;;;;;1.74;90.93;103298.44;3617367;39;20411;-67
2024/01/27 07:26:10;;;;;;;28.77;12.07;;;;;;;1.92;91.55;103324.34;3612974;39;20055;-67
2024/01/27 07:28:37;;;;;;;17.08;9.90;;;;;;;1.93;91.28;103326.09;3610120;39;20423;-67
2024/01/27 07:31:03;;;;;;;22.92;9.90;;;;;;;1.78;92.03;103307.34;3612246;39;20034;-67
2024/01/27 07:33:29;;;;;;;21.15;10.75;;;;;;;1.94;91.38;103333.22;3608388;39;20492;-66
2024/01/27 07:35:55;;;;;;;21.48;10.32;;;;;;;1.95;91.28;103315.53;3619378;39;20047;-68
2024/01/27 07:38:20;;;;;;;20.38;10.30;;;;;;;1.94;90.72;103338.53;3608593;39;20066;-67
2024/01/27 07:40:46;;;;;;;20.20;10.38;;;;;;;1.94;91.40;103332.31;3611324;39;20074;-67
2024/01/27 07:43:12;;;;;;;22.55;10.07;;;;;;;1.78;91.59;103299.38;3611151;39;20047;-68
2024/01/27 07:45:37;;;;;;;21.60;10.70;;;;;;;1.94;91.30;103333.22;3609244;39;20059;-68
2024/01/27 07:48:05;;;;;;;20.98;10.02;;;;;;;1.95;90.83;103332.34;3609496;39;20051;-67
2024/01/27 07:50:30;;;;;;;23.52;9.32;;;;;;;1.97;91.13;103332.38;3609920;39;20371;-68
2024/01/27 07:52:57;;;;;;;22.83;9.77;;;;;;;1.86;91.94;103318.94;3609426;39;20050;-68
2024/01/27 07:55:23;;;;;;;19.27;9.65;;;;;;;2.01;92.26;103345.69;3617414;39;20391;-67
2024/01/27 07:57:49;;;;;;;23.80;9.98;;;;;;;2.02;91.61;103339.50;3613729;39;20077;-68
2024/01/27 08:00:15;;;;;;;19.08;9.68;;;;;;;2.03;91.18;103338.66;3608824;39;20083;-67
2024/01/27 08:02:41;;;;;;;20.45;9.10;;;;;;;2.05;90.91;103339.53;3610247;39;20396;-68
2024/01/27 08:05:07;;;;;;;21.33;9.93;;;;;;;2.08;91.55;103344.91;3608438;39;20071;-68
2024/01/27 08:07:32;;;;;;;20.52;9.23;;;;;;;2.14;91.41;103332.59;3607631;39;20047;-67
2024/01/27 08:09:59;;;;;;;21.88;10.10;;;;;;;2.17;91.34;103324.69;3608969;39;20054;-68
2024/01/27 08:12:24;;;;;;;20.48;9.45;;;;;;;2.19;92.23;103318.53;3608165;39;20057;-68
2024/01/27 08:14:50;;;;;;;18.38;9.35;;;;;;;2.23;91.26;103316.81;3607798;39;20055;-68
2024/01/27 08:17:16;;;;;;;22.90;11.13;;;;;;;2.07;92.05;103283.88;3610287;39;20438;-68
2024/01/27 08:19:41;;;;;;;23.27;10.95;;;;;;;2.35;92.25;103330.22;3612081;39;20058;-67
2024/01/27 08:22:09;;;;;;;21.42;11.52;;;;;;;2.40;91.02;103333.81;3609427;39;20070;-69
2024/01/27 08:24:35;;;;;;;26.10;13.60;;;;;;;2.44;91.74;103334.75;3609401;39;20047;-68
2024/01/27 08:27:01;;;;;;;24.73;9.75;;;;;;;2.48;91.86;103332.16;3608606;39;20411;-67
2024/01/27 08:29:26;;;;;;;24.23;10.60;;;;;;;2.56;92.38;103319.84;3606871;39;20058;-67
2024/01/27 08:31:52;;;;;;;21.38;9.13;;;;;;;2.62;91.99;103315.50;3608862;39;20074;-67
2024/01/27 08:34:18;;;;;;;20.27;8.48;;;;;;;2.69;91.45;103314.69;3609270;39;20054;-67
2024/01/27 08:36:43;;;;;;;14.63;8.10;;;;;;;2.70;91.42;103311.16;3608471;39;20067;-68
2024/01/27 08:39:09;;;;;;;20.23;8.40;;;;;;;2.83;91.41;103326.34;3607126;39;20051;-67
2024/01/27 08:41:34;;;;;;;20.17;8.05;;;;;;;2.87;91.14;103325.50;3607057;39;20047;-67
2024/01/27 08:44:00;;;;;;;22.92;8.88;;;;;;;2.81;90.62;103301.53;3608096;39;20151;-66
2024/01/27 08:46:26;;;;;;;23.65;9.40;;;;;;;3.07;90.45;103340.75;3608626;39;20063;-67
2024/01/27 08:48:51;;;;;;;17.63;8.23;;;;;;;3.13;89.29;103338.16;3610556;39;20054;-67
2024/01/27 08:51:17;;;;;;;24.75;9.57;;;;;;;3.25;89.55;103331.19;3605768;39;20082;-67
2024/01/27 08:53:48;;;;;;;22.48;8.55;;;;;;;3.38;88.87;103337.50;3607273;39;20111;-67
2024/01/27 08:56:17;;;;;;;23.88;9.70;;;;;;;3.46;88.46;103333.16;3607451;39;20277;-68
2024/01/27 08:58:49;;;;;;;17.70;7.65;;;;;;;3.57;88.16;103337.66;3607510;39;20058;-67
2024/01/27 09:01:16;;;;;;;20.10;7.90;;;;;;;3.66;87.52;103343.03;3608334;39;20050;-69
2024/01/27 09:03:42;;;;;;;21.60;7.50;;;;;;;3.73;87.40;103352.84;3607200;39;20051;-70
2024/01/27 09:06:07;;;;;;;18.52;7.75;;;;;;;3.81;87.13;103355.59;3606836;39;20299;-67
2024/01/27 09:08:37;;;;;;;21.30;8.38;;;;;;;3.90;86.37;103352.94;3608109;39;20047;-66
2024/01/27 09:11:03;;;;;;;22.80;8.45;;;;;;;3.85;85.74;103334.31;3607299;39;20047;-66
2024/01/27 09:13:29;;;;;;;15.82;7.55;;;;;;;4.02;85.93;103349.50;3607186;39;20057;-67
2024/01/27 09:15:57;;;;;;;21.75;8.05;;;;;;;4.13;85.54;103347.78;3606899;39;20055;-66
2024/01/27 09:18:23;;;;;;;18.33;7.80;;;;;;;4.24;85.63;103367.34;3606381;39;20059;-65
2024/01/27 09:20:49;;;;;;;16.98;6.63;;;;;;;4.34;84.78;103362.97;3607083;39;20069;-64
2024/01/27 09:23:14;;;;;;;19.38;7.43;;;;;;;4.40;84.28;103369.22;3613836;39;20050;-65
2024/01/27 09:25:40;;;;;;;15.70;7.43;;;;;;;4.48;84.25;103371.03;3606473;39;20047;-66
2024/01/27 09:28:06;;;;;;;16.02;7.57;;;;;;;4.56;83.77;103369.28;3608231;39;20035;-66
2024/01/27 09:30:31;;;;;;;20.75;7.40;;;;;;;4.64;83.26;103375.56;3607160;39;20364;-67
2024/01/27 09:32:57;;;;;;;19.45;7.07;;;;;;;4.69;83.04;103367.56;3607930;39;20043;-67
2024/01/27 09:35:22;;;;;;;14.60;6.47;;;;;;;4.50;83.03;103343.50;3607020;39;20056;-66
2024/01/27 09:37:48;;;;;;;17.85;6.88;;;;;;;4.81;83.16;103384.47;3609596;39;20051;-66
2024/01/27 09:40:14;;;;;;;20.67;7.75;;;;;;;4.86;82.75;103381.84;3608399;39;20050;-67
2024/01/27 09:42:54;;;;;;;21.70;9.02;;;;;;;5.03;82.68;103395.22;3607185;39;20055;-66
2024/01/27 09:45:25;;;;;;;21.25;7.40;;;;;;;5.17;81.94;103393.47;3606289;39;20058;-67
2024/01/27 09:47:52;;;;;;;16.73;7.07;;;;;;;5.16;81.14;103378.34;3606990;39;20083;-67
2024/01/27 09:50:18;;;;;;;16.00;6.07;;;;;;;5.42;80.58;103401.50;3605739;39;20051;-67
2024/01/27 09:52:44;;;;;;;21.73;7.63;;;;;;;5.56;79.96;103394.41;3606711;39;20415;-67
2024/01/27 09:55:10;;;;;;;20.25;7.65;;;;;;;5.75;79.48;103390.84;3605713;39;20051;-67
2024/01/27 09:57:39;;;;;;;20.55;7.35;;;;;;;5.89;79.09;103385.47;3609817;39;20058;-68
2024/01/27 10:00:13;;;;;;;16.65;7.10;;;;;;;6.24;77.41;103405.94;3606539;39;20097;-67
2024/01/27 10:02:41;;;;;;;18.05;6.65;;;;;;;6.45;77.18;103410.34;3607680;39;20050;-68
2024/01/27 10:05:09;;;;;;;14.00;6.57;;;;;;;6.70;76.89;103412.03;3608487;39;20086;-68
2024/01/27 10:07:34;;;;;;;19.25;7.65;;;;;;;6.88;75.38;103388.75;3609362;39;20473;-69
2024/01/27 10:10:00;;;;;;;18.27;6.03;;;;;;;7.25;73.75;103399.25;3608150;39;20051;-69
2024/01/27 10:12:28;;;;;;;19.13;6.47;;;;;;;7.35;73.21;103400.97;3608156;39;20055;-69
2024/01/27 10:14:54;;;;;;;17.23;6.13;;;;;;;7.40;72.98;103393.81;3610468;39;20050;-69
2024/01/27 10:17:28;;;;;;;17.73;6.68;;;;;;;7.70;72.37;103415.88;3610385;39;20376;-69
2024/01/27 10:20:05;;;;;;;20.02;6.88;;;;;;;7.73;70.64;103398.00;3609545;39;20319;-69
2024/01/27 10:22:41;;;;;;;15.05;5.90;;;;;;;8.07;70.95;103424.47;3606947;39;20059;-69
2024/01/27 10:25:09;;;;;;;18.25;7.00;;;;;;;8.31;70.74;103418.88;3608391;39;20116;-70
2024/01/27 10:27:35;;;;;;;17.27;6.28;;;;;;;8.44;68.58;103410.75;3607363;39;20357;-69
2024/01/27 10:30:02;;;;;;;14.82;5.85;;;;;;;8.67;68.48;103415.81;3611208;39;20046;-69
2024/01/27 10:32:28;;;;;;;20.50;6.10;;;;;;;8.88;67.56;103425.38;3608505;39;20354;-69
2024/01/27 10:35:10;;;;;;;14.57;5.78;;;;;;;9.04;66.56;103424.28;3608024;39;20054;-69
2024/01/27 10:37:37;;;;;;;12.63;5.43;;;;;;;9.12;65.89;103434.91;3614077;39;20050;-69
2024/01/27 10:40:07;;;;;;;14.68;5.32;;;;;;;9.21;65.55;103413.31;3608814;39;20039;-69
2024/01/27 10:42:36;;;;;;;15.52;5.70;;;;;;;9.41;65.26;103427.31;3606454;39;20299;-69
2024/01/27 10:45:04;;;;;;;16.38;5.97;;;;;;;9.37;64.22;103430.94;3606889;39;20066;-69
2024/01/27 10:47:33;;;;;;;13.82;6.25;;;;;;;9.45;64.60;103412.94;3607680;39;20052;-69
2024/01/27 10:50:00;;;;;;;18.63;6.35;;;;;;;9.60;64.09;103416.28;3609771;39;20061;-69
2024/01/27 10:52:32;;;;;;;18.48;6.20;;;;;;;9.69;63.58;103410.75;3606574;39;20043;-69
2024/01/27 10:55:03;;;;;;;16.60;6.20;;;;;;;9.86;63.63;103408.66;3609505;39;20051;-69
2024/01/27 10:57:31;;;;;;;16.63;5.78;;;;;;;9.90;62.87;103390.72;3606343;39;20071;-69
2024/01/27 10:59:57;;;;;;;15.70;6.30;;;;;;;9.99;62.70;103378.00;3607761;39;20054;-69
2024/01/27 11:02:25;;;;;;;15.35;5.45;;;;;;;10.31;61.70;103399.84;3608427;39;20120;-69
2024/01/27 11:04:54;;;;;;;17.48;5.47;;;;;;;10.41;61.30;103402.31;3607722;39;20347;-69
2024/01/27 11:07:24;;;;;;;18.27;5.90;;;;;;;10.52;61.44;103394.00;3607520;39;20114;-69
2024/01/27 11:09:51;;;;;;;16.90;5.70;;;;;;;10.54;60.56;103396.69;3609478;39;21363;-69
2024/01/27 11:12:21;;;;;;;13.77;4.75;;;;;;;10.59;60.21;103394.78;3605080;39;20100;-70
2024/01/27 11:14:48;;;;;;;12.70;5.03;;;;;;;10.83;60.69;103393.38;3609048;39;20094;-69
2024/01/27 11:17:16;;;;;;;12.85;5.63;;;;;;;11.03;59.74;103380.34;3608353;39;20378;-70
2024/01/27 11:19:42;;;;;;;14.73;5.47;;;;;;;11.09;58.63;103379.34;3608363;39;20084;-69
2024/01/27 11:22:27;;;;;;;14.88;5.70;;;;;;;11.17;57.30;103387.25;3608106;39;20055;-69